createdAt,value
2023-05-10T00:00:22.681Z,50.81
2023-05-10T00:03:14.239Z,50.98
2023-05-10T00:05:47.066Z,51.10
2023-05-10T00:11:23.166Z,51.34
2023-05-10T00:13:55.750Z,51.79
2023-05-10T00:16:28.864Z,51.64
2023-05-10T00:19:06.149Z,51.58
2023-05-10T00:21:40.668Z,51.54
2023-05-10T00:24:16.091Z,51.71
2023-05-10T00:26:50.561Z,51.74
2023-05-10T00:29:23.777Z,51.45
2023-05-10T00:31:56.743Z,50.88
2023-05-10T00:34:29.192Z,51.37
2023-05-10T00:37:03.347Z,51.68
2023-05-10T00:39:42.415Z,51.98
2023-05-10T00:42:17.847Z,52.36
2023-05-10T00:44:51.220Z,52.34
2023-05-10T00:47:24.643Z,52.81
2023-05-10T00:49:57.709Z,52.90
2023-05-10T00:52:33.346Z,52.71
2023-05-10T00:55:11.333Z,53.32
2023-05-10T00:57:46.670Z,53.45
2023-05-10T01:00:20.291Z,53.33
2023-05-10T01:02:53.577Z,54.06
2023-05-10T01:05:26.893Z,53.58
2023-05-10T01:08:04.315Z,54.06
2023-05-10T01:10:40.500Z,54.45
2023-05-10T01:13:14.671Z,54.40
2023-05-10T01:15:48.145Z,54.77
2023-05-10T01:18:26.829Z,54.96
2023-05-10T01:21:29.856Z,54.67
2023-05-10T01:24:24.448Z,54.90
2023-05-10T01:27:27.079Z,55.33
2023-05-10T01:30:29.472Z,55.47
2023-05-10T01:33:20.594Z,56.70
2023-05-10T01:36:11.195Z,56.66
2023-05-10T01:38:54.528Z,56.78
2023-05-10T01:41:33.743Z,57.47
2023-05-10T01:44:23.205Z,57.25
2023-05-10T01:47:23.511Z,57.50
2023-05-10T01:50:14.112Z,57.79
2023-05-10T01:53:00.155Z,57.85
2023-05-10T01:55:51.516Z,58.12
2023-05-10T01:58:39.807Z,58.24
2023-05-10T02:01:19.544Z,58.60
2023-05-10T02:04:04.712Z,58.92
2023-05-10T02:06:55.055Z,58.63
2023-05-10T02:09:32.717Z,59.12
2023-05-10T02:12:08.765Z,59.16
2023-05-10T02:14:43.724Z,59.12
2023-05-10T02:17:17.591Z,59.31
2023-05-10T02:19:52.921Z,59.07
2023-05-10T02:22:35.197Z,60.01
2023-05-10T02:25:10.030Z,59.97
2023-05-10T02:27:45.666Z,59.97
2023-05-10T02:30:19.780Z,60.50
2023-05-10T02:32:55.738Z,60.17
2023-05-10T02:35:32.074Z,59.96
2023-05-10T02:38:08.854Z,60.35
2023-05-10T02:40:48.626Z,60.41
2023-05-10T02:43:33.344Z,60.36
2023-05-10T02:46:08.134Z,60.43
2023-05-10T02:48:56.451Z,60.16
2023-05-10T02:51:33.116Z,60.34
2023-05-10T02:54:15.179Z,60.83
2023-05-10T02:56:55.154Z,60.67
2023-05-10T02:59:28.284Z,61.12
2023-05-10T03:02:01.844Z,61.41
2023-05-10T03:04:34.882Z,61.35
2023-05-10T03:07:08.517Z,61.38
2023-05-10T03:09:44.623Z,61.57
2023-05-10T03:12:26.369Z,61.45
2023-05-10T03:15:08.484Z,61.52
2023-05-10T03:17:53.288Z,61.69
2023-05-10T03:20:31.090Z,61.64
2023-05-10T03:23:35.600Z,61.35
2023-05-10T03:26:23.204Z,61.45
2023-05-10T03:29:03.689Z,61.21
2023-05-10T03:31:39.486Z,61.64
2023-05-10T03:34:13.432Z,61.61
2023-05-10T03:36:46.434Z,61.69
2023-05-10T03:39:19.285Z,61.87
2023-05-10T03:41:59.488Z,61.78
2023-05-10T03:44:35.280Z,62.09
2023-05-10T03:47:07.730Z,61.90
2023-05-10T03:49:40.269Z,61.96
2023-05-10T03:52:12.469Z,61.43
2023-05-10T03:54:45.003Z,61.45
2023-05-10T03:57:19.810Z,61.44
2023-05-10T03:59:52.224Z,61.68
2023-05-10T04:02:24.236Z,61.17
2023-05-10T04:04:56.941Z,61.31
2023-05-10T04:07:29.034Z,61.36
2023-05-10T04:10:01.452Z,61.14
2023-05-10T04:12:36.331Z,61.14
2023-05-10T04:15:09.930Z,60.89
2023-05-10T04:17:42.160Z,60.60
2023-05-10T04:20:16.447Z,60.81
2023-05-10T04:22:48.728Z,60.11
2023-05-10T04:25:21.336Z,60.46
2023-05-10T04:27:56.702Z,59.96
2023-05-10T04:30:30.837Z,59.88
2023-05-10T04:33:03.189Z,59.58
2023-05-10T04:35:35.670Z,59.47
2023-05-10T04:38:07.680Z,59.04
2023-05-10T04:40:40.153Z,58.67
2023-05-10T04:43:15.050Z,58.34
2023-05-10T04:45:47.631Z,57.73
2023-05-10T04:48:19.872Z,57.53
2023-05-10T04:50:52.286Z,56.81
2023-05-10T04:53:24.320Z,56.71
2023-05-10T04:55:56.898Z,56.67
2023-05-10T04:58:31.775Z,56.41
2023-05-10T05:01:12.167Z,55.82
2023-05-10T05:03:44.691Z,55.40
2023-05-10T05:06:17.409Z,55.47
2023-05-10T05:08:50.807Z,54.87
2023-05-10T05:11:23.752Z,54.88
2023-05-10T05:14:00.469Z,54.52
2023-05-10T05:16:35.611Z,53.78
2023-05-10T05:19:08.139Z,53.75
2023-05-10T05:21:40.852Z,52.83
2023-05-10T05:24:14.218Z,52.59
2023-05-10T05:26:46.953Z,52.21
2023-05-10T05:29:21.770Z,51.65
2023-05-10T05:31:55.634Z,51.13
2023-05-10T05:34:28.429Z,49.50
2023-05-10T05:37:01.052Z,46.56
2023-05-10T05:39:35.176Z,44.13
2023-05-10T05:42:08.040Z,42.84
2023-05-10T05:44:43.856Z,42.13
2023-05-10T05:47:26.654Z,40.80
2023-05-10T05:49:58.929Z,39.16
2023-05-10T05:52:31.727Z,39.04
2023-05-10T05:55:04.192Z,38.71
2023-05-10T05:57:36.950Z,38.49
2023-05-10T06:00:13.329Z,36.91
2023-05-10T06:02:46.144Z,37.57
2023-05-10T06:05:18.635Z,37.03
2023-05-10T06:07:51.491Z,36.36
2023-05-10T06:10:23.728Z,35.94
2023-05-10T06:12:56.606Z,35.66
2023-05-10T06:15:31.778Z,36.29
2023-05-10T06:18:04.504Z,36.83
2023-05-10T06:20:37.003Z,35.64
2023-05-10T06:23:09.553Z,35.63
2023-05-10T06:25:42.097Z,35.66
2023-05-10T06:28:14.614Z,35.65
2023-05-10T06:31:17.706Z,33.97
2023-05-10T06:33:50.458Z,34.87
2023-05-10T06:36:23.411Z,34.94
2023-05-10T06:38:58.429Z,33.87
2023-05-10T06:41:30.695Z,33.26
2023-05-10T06:44:03.434Z,33.11
2023-05-10T06:46:39.070Z,31.74
2023-05-10T06:49:13.674Z,32.47
2023-05-10T06:51:49.831Z,33.01
2023-05-10T06:54:24.835Z,33.65
2023-05-10T06:56:57.514Z,33.88
2023-05-10T06:59:30.550Z,33.69
2023-05-10T07:02:05.990Z,32.57
2023-05-10T07:04:39.107Z,31.82
2023-05-10T07:07:11.639Z,32.14
2023-05-10T07:09:45.357Z,32.85
2023-05-10T07:12:18.251Z,31.65
2023-05-10T07:14:51.195Z,31.85
2023-05-10T07:17:26.621Z,30.01
2023-05-10T07:19:59.398Z,32.05
2023-05-10T07:22:31.790Z,30.71
2023-05-10T07:25:04.810Z,30.88
2023-05-10T07:27:37.792Z,31.13
2023-05-10T07:30:19.841Z,31.88
2023-05-10T07:33:09.920Z,31.98
2023-05-10T07:35:42.837Z,31.77
2023-05-10T07:38:15.392Z,31.78
2023-05-10T07:40:48.954Z,32.23
2023-05-10T07:43:21.234Z,31.32
2023-05-10T07:45:56.257Z,31.48
2023-05-10T07:48:31.708Z,31.18
2023-05-10T07:51:04.399Z,31.54
2023-05-10T07:53:37.108Z,31.10
2023-05-10T07:56:28.633Z,31.40
2023-05-10T07:59:01.200Z,31.33
2023-05-10T08:01:36.184Z,30.55
2023-05-10T08:04:11.161Z,30.11
2023-05-10T08:06:44.278Z,29.55
2023-05-10T08:09:16.667Z,29.94
2023-05-10T08:11:49.352Z,30.67
2023-05-10T08:14:21.662Z,30.12
2023-05-10T08:16:54.352Z,30.09
2023-05-10T08:19:29.232Z,30.40
2023-05-10T08:22:02.035Z,31.62
2023-05-10T08:24:36.307Z,31.10
2023-05-10T08:27:09.352Z,30.60
2023-05-10T08:29:50.007Z,30.18
2023-05-10T08:32:23.549Z,29.62
2023-05-10T08:34:59.545Z,30.30
2023-05-10T08:37:35.106Z,29.90
2023-05-10T08:40:08.026Z,29.85
2023-05-10T08:42:44.302Z,28.53
2023-05-10T08:45:18.225Z,27.71
2023-05-10T08:47:52.478Z,27.13
2023-05-10T08:50:28.466Z,27.71
2023-05-10T08:53:04.915Z,26.99
2023-05-10T08:55:38.350Z,27.88
2023-05-10T08:58:11.557Z,28.03
2023-05-10T09:00:44.658Z,28.35
2023-05-10T09:03:18.068Z,28.44
2023-05-10T09:05:53.751Z,28.24
2023-05-10T09:08:29.030Z,27.78
2023-05-10T09:11:06.924Z,28.79
2023-05-10T09:13:42.052Z,29.03
2023-05-10T09:16:21.600Z,29.04
2023-05-10T09:18:54.637Z,27.96
2023-05-10T09:21:31.228Z,27.89
2023-05-10T09:24:09.154Z,28.16
2023-05-10T09:26:52.005Z,28.04
2023-05-10T09:29:24.622Z,27.73
2023-05-10T09:31:58.258Z,28.19
2023-05-10T09:34:36.439Z,28.17
2023-05-10T09:37:10.883Z,27.51
2023-05-10T09:39:43.487Z,27.89
2023-05-10T09:42:17.064Z,27.44
2023-05-10T09:44:50.520Z,27.70
2023-05-10T09:47:22.272Z,28.46
2023-05-10T09:50:05.959Z,27.42
2023-05-10T09:52:59.730Z,26.74
2023-05-10T09:55:46.174Z,28.19
2023-05-10T09:58:18.387Z,27.00
2023-05-10T10:00:53.690Z,27.31
2023-05-10T10:03:26.283Z,27.57
2023-05-10T10:05:59.593Z,26.83
2023-05-10T10:08:34.232Z,27.82
2023-05-10T10:11:07.094Z,27.27
2023-05-10T10:13:39.357Z,27.11
2023-05-10T10:16:13.804Z,26.86
2023-05-10T10:18:46.942Z,26.92
2023-05-10T10:21:19.987Z,26.49
2023-05-10T10:23:56.010Z,26.84
2023-05-10T10:26:29.115Z,26.58
2023-05-10T10:29:14.132Z,27.75
2023-05-10T10:31:52.132Z,26.74
2023-05-10T10:34:31.968Z,26.97
2023-05-10T10:37:09.525Z,26.97
2023-05-10T10:39:44.135Z,26.27
2023-05-10T10:42:16.293Z,26.51
2023-05-10T10:44:48.109Z,26.86
2023-05-10T10:47:31.349Z,25.67
2023-05-10T10:50:12.150Z,27.02
2023-05-10T10:52:45.731Z,27.07
2023-05-10T10:55:26.324Z,29.40
2023-05-10T10:58:02.023Z,26.44
2023-05-10T11:00:36.462Z,26.84
2023-05-10T11:03:12.020Z,26.37
2023-05-10T11:05:46.305Z,26.74
2023-05-10T11:08:21.458Z,27.11
2023-05-10T11:11:13.544Z,27.37
2023-05-10T11:13:51.830Z,27.39
2023-05-10T11:16:25.934Z,26.99
2023-05-10T11:19:07.019Z,29.55
2023-05-10T11:21:50.496Z,27.11
2023-05-10T11:24:24.385Z,28.56
2023-05-10T11:26:58.602Z,26.94
2023-05-10T11:29:32.668Z,27.52
2023-05-10T11:32:06.126Z,29.28
2023-05-10T11:34:39.306Z,26.88
2023-05-10T11:37:10.576Z,28.82
2023-05-10T11:39:42.304Z,27.50
2023-05-10T11:42:16.862Z,27.87
2023-05-10T11:44:51.357Z,28.05
2023-05-10T11:47:22.993Z,27.44
2023-05-10T11:49:56.693Z,28.20
2023-05-10T11:52:28.583Z,28.39
2023-05-10T11:55:00.586Z,28.51
2023-05-10T11:57:35.562Z,28.68
2023-05-10T12:00:08.366Z,29.56
2023-05-10T12:02:40.798Z,29.94
2023-05-10T12:05:15.042Z,29.95
2023-05-10T12:07:47.566Z,30.82
2023-05-10T12:10:20.630Z,30.76
2023-05-10T12:12:57.171Z,30.74
2023-05-10T12:15:30.153Z,30.29
2023-05-10T12:18:04.244Z,30.67
2023-05-10T12:20:37.236Z,31.10
2023-05-10T12:23:10.199Z,31.31
2023-05-10T12:25:49.396Z,31.54
2023-05-10T12:28:24.954Z,30.62
2023-05-10T12:30:58.593Z,29.82
2023-05-10T12:33:31.690Z,29.85
2023-05-10T12:36:04.438Z,30.85
2023-05-10T12:38:39.836Z,30.57
2023-05-10T12:41:13.992Z,31.71
2023-05-10T12:43:49.834Z,32.18
2023-05-10T12:46:23.022Z,32.51
2023-05-10T12:49:07.549Z,32.10
2023-05-10T12:51:41.881Z,32.63
2023-05-10T12:54:14.051Z,32.60
2023-05-10T12:56:47.838Z,32.97
2023-05-10T12:59:22.963Z,32.96
2023-05-10T13:01:55.723Z,32.16
2023-05-10T13:04:28.102Z,31.82
2023-05-10T13:07:01.435Z,31.86
2023-05-10T13:09:33.994Z,31.85
2023-05-10T13:12:07.688Z,32.11
2023-05-10T13:14:45.082Z,31.91
2023-05-10T13:17:17.678Z,32.14
2023-05-10T13:19:50.080Z,32.05
2023-05-10T13:22:32.493Z,31.56
2023-05-10T13:25:20.715Z,32.08
2023-05-10T13:27:53.835Z,32.53
2023-05-10T13:30:30.319Z,31.58
2023-05-10T13:33:03.559Z,32.02
2023-05-10T13:35:36.355Z,31.40
2023-05-10T13:38:09.634Z,31.21
2023-05-10T13:40:42.536Z,30.71
2023-05-10T13:43:16.800Z,29.95
2023-05-10T13:45:52.398Z,30.02
2023-05-10T13:48:25.879Z,30.02
2023-05-10T13:50:58.558Z,30.91
2023-05-10T13:53:31.679Z,31.24
2023-05-10T13:56:04.322Z,30.99
2023-05-10T13:58:37.916Z,30.92
2023-05-10T14:01:13.658Z,30.54
2023-05-10T14:03:46.921Z,30.14
2023-05-10T14:06:19.680Z,30.32
2023-05-10T14:08:52.899Z,29.90
2023-05-10T14:11:25.922Z,30.21
2023-05-10T14:13:59.118Z,30.49
2023-05-10T14:16:34.733Z,30.59
2023-05-10T14:19:07.901Z,30.44
2023-05-10T14:21:40.846Z,30.38
2023-05-10T14:24:14.119Z,29.92
2023-05-10T14:26:46.835Z,29.53
2023-05-10T14:33:53.843Z,28.86
2023-05-10T14:36:26.309Z,29.50
2023-05-10T14:38:58.575Z,28.97
2023-05-10T14:45:00.060Z,29.73
2023-05-10T14:48:38.607Z,29.22
2023-05-10T14:51:23.439Z,29.29
2023-05-10T15:02:33.299Z,29.78
2023-05-10T15:05:07.354Z,30.67
2023-05-10T15:07:46.562Z,30.41
2023-05-10T15:10:20.112Z,30.61
2023-05-10T15:12:52.633Z,30.47
2023-05-10T15:15:25.512Z,30.11
2023-05-10T15:17:58.343Z,30.58
2023-05-10T15:20:30.883Z,30.98
2023-05-10T15:23:06.228Z,30.46
2023-05-10T15:25:41.673Z,31.13
2023-05-10T15:28:14.520Z,30.75
2023-05-10T15:30:46.767Z,30.49
2023-05-10T15:36:04.604Z,30.66
2023-05-10T15:38:51.515Z,30.74
2023-05-10T15:41:24.159Z,30.63
2023-05-10T15:43:57.038Z,31.05
2023-05-10T15:46:29.495Z,31.03
2023-05-10T15:49:03.018Z,30.89
2023-05-10T15:51:36.659Z,31.46
2023-05-10T15:54:13.793Z,31.72
2023-05-10T15:56:46.082Z,31.33
2023-05-10T15:59:18.643Z,31.69
2023-05-10T16:01:51.451Z,31.33
2023-05-10T16:04:24.439Z,32.02
2023-05-10T16:06:57.889Z,31.86
2023-05-10T16:09:33.445Z,32.10
2023-05-10T16:12:07.368Z,32.58
2023-05-10T16:14:40.558Z,32.68
2023-05-10T16:17:13.193Z,33.01
2023-05-10T16:19:46.007Z,32.76
2023-05-10T16:22:18.480Z,33.49
2023-05-10T16:24:54.449Z,35.15
2023-05-10T16:27:29.168Z,36.44
2023-05-10T16:30:01.812Z,37.66
2023-05-10T16:32:34.584Z,37.88
2023-05-10T16:35:08.919Z,41.92
2023-05-10T16:37:42.276Z,48.16
2023-05-10T16:43:53.279Z,53.12
2023-05-10T16:46:26.724Z,54.00
2023-05-10T16:49:03.320Z,55.44
2023-05-10T16:51:36.098Z,54.87
2023-05-10T16:54:08.537Z,55.33
2023-05-10T16:56:44.320Z,56.17
2023-05-10T16:59:18.726Z,55.66
2023-05-10T17:01:53.662Z,56.12
2023-05-10T17:04:25.918Z,56.53
2023-05-10T17:06:59.891Z,56.81
2023-05-10T17:09:32.087Z,57.88
2023-05-10T17:12:07.475Z,58.96
2023-05-10T17:14:41.452Z,59.99
2023-05-10T17:17:17.163Z,60.66
2023-05-10T17:19:49.418Z,61.14
2023-05-10T17:22:22.374Z,62.37
2023-05-10T17:24:58.473Z,62.44
2023-05-10T17:27:35.082Z,62.01
2023-05-10T17:30:07.845Z,63.33
2023-05-10T17:32:40.743Z,63.52
2023-05-10T17:35:14.402Z,64.27
2023-05-10T17:37:47.753Z,64.52
2023-05-10T17:40:20.282Z,63.82
2023-05-10T17:42:55.974Z,64.79
2023-05-10T17:45:28.126Z,65.45
2023-05-10T17:48:00.974Z,65.40
2023-05-10T17:50:33.573Z,66.09
2023-05-10T17:53:07.638Z,65.35
2023-05-10T17:55:40.120Z,66.48
2023-05-10T17:58:16.171Z,66.87
2023-05-10T18:00:48.396Z,66.50
2023-05-10T18:03:21.200Z,66.50
2023-05-10T18:05:54.421Z,66.48
2023-05-10T18:08:29.006Z,66.22
2023-05-10T18:11:01.559Z,66.32
2023-05-10T18:13:37.117Z,66.46
2023-05-10T18:16:09.440Z,66.98
2023-05-10T18:18:43.009Z,67.72
2023-05-10T18:21:15.502Z,67.66
2023-05-10T18:23:50.715Z,68.85
2023-05-10T18:26:22.841Z,68.75
2023-05-10T18:29:01.275Z,68.92
2023-05-10T18:31:34.441Z,68.93
2023-05-10T18:34:06.909Z,69.04
2023-05-10T18:36:39.123Z,69.45
2023-05-10T18:41:59.563Z,70.32
2023-05-10T18:44:52.341Z,69.74
2023-05-10T18:47:24.250Z,69.77
2023-05-10T18:49:57.760Z,70.23
2023-05-10T18:52:30.328Z,70.83
2023-05-10T18:55:03.137Z,70.76
2023-05-10T18:57:41.784Z,70.58
2023-05-10T19:00:19.883Z,71.32
2023-05-10T19:02:54.174Z,71.06
2023-05-10T19:05:30.490Z,71.26
2023-05-10T19:08:03.031Z,71.53
2023-05-10T19:10:37.165Z,72.04
2023-05-10T19:13:10.122Z,73.29
2023-05-10T19:15:45.549Z,73.24
2023-05-10T19:18:21.204Z,73.80
2023-05-10T19:20:53.878Z,74.28
2023-05-10T19:23:30.432Z,75.02
2023-05-10T19:26:06.292Z,75.05
2023-05-10T19:28:38.752Z,74.92
2023-05-10T19:31:14.398Z,74.14
2023-05-10T19:33:46.978Z,74.39
2023-05-10T19:36:19.799Z,74.57
2023-05-10T19:38:53.841Z,75.06
2023-05-10T19:41:26.754Z,75.28
2023-05-10T19:43:59.675Z,75.55
2023-05-10T19:46:35.400Z,75.58
2023-05-10T19:49:28.807Z,75.57
2023-05-10T19:52:10.587Z,76.22
2023-05-10T19:54:42.963Z,76.05
2023-05-10T20:00:14.529Z,76.47
2023-05-10T20:02:55.570Z,76.94
2023-05-10T20:05:31.453Z,77.00
2023-05-10T20:08:05.044Z,77.27
2023-05-10T20:10:43.765Z,78.37
2023-05-10T20:13:23.555Z,79.15
2023-05-10T20:16:02.940Z,78.60
2023-05-10T20:18:41.472Z,78.88
2023-05-10T20:21:14.771Z,79.42
2023-05-10T20:23:59.860Z,80.61
2023-05-10T20:26:45.598Z,80.95
2023-05-10T20:29:33.463Z,81.40
2023-05-10T20:32:12.773Z,81.55
2023-05-10T20:34:57.870Z,81.55
2023-05-10T20:37:31.144Z,82.29
2023-05-10T20:40:07.067Z,82.57
2023-05-10T20:42:47.602Z,82.44
2023-05-10T20:45:38.481Z,82.87
2023-05-10T20:48:14.166Z,82.42
2023-05-10T20:50:52.359Z,82.75
2023-05-10T20:53:25.288Z,82.61
2023-05-10T20:56:05.212Z,82.84
2023-05-10T20:58:39.827Z,83.25
2023-05-10T21:01:12.781Z,84.56
2023-05-10T21:03:45.394Z,84.50
2023-05-10T21:06:20.972Z,85.30
2023-05-10T21:08:52.880Z,86.02
2023-05-10T21:11:26.292Z,85.75
2023-05-10T21:13:59.673Z,85.80
2023-05-10T21:16:33.899Z,86.28
2023-05-10T21:19:07.846Z,85.83
2023-05-10T21:21:43.687Z,85.98
2023-05-10T21:24:17.580Z,86.19
2023-05-10T21:26:54.456Z,87.08
2023-05-10T21:29:28.446Z,87.09
2023-05-10T21:32:07.908Z,87.25
2023-05-10T21:34:40.963Z,87.47
2023-05-10T21:37:16.720Z,88.42
2023-05-10T21:39:52.334Z,87.92
2023-05-10T21:42:27.032Z,88.23
2023-05-10T21:45:23.635Z,88.89
2023-05-10T21:47:57.832Z,88.77
2023-05-10T21:50:30.852Z,89.53
2023-05-10T21:53:07.246Z,89.56
2023-05-10T21:55:43.302Z,89.62
2023-05-10T21:58:39.469Z,89.66
2023-05-10T22:01:33.254Z,90.02
2023-05-10T22:04:31.023Z,90.35
2023-05-10T22:07:05.798Z,90.36
2023-05-10T22:09:44.518Z,89.91
2023-05-10T22:12:17.672Z,90.08
2023-05-10T22:14:59.611Z,89.38
2023-05-10T22:17:42.740Z,89.39
2023-05-10T22:20:16.208Z,89.65
2023-05-10T22:22:49.200Z,89.63
2023-05-10T22:25:29.792Z,89.25
2023-05-10T22:28:03.346Z,89.04
2023-05-10T22:30:36.997Z,88.32
2023-05-10T22:33:11.397Z,88.82
2023-05-10T22:35:48.643Z,88.45
2023-05-10T22:38:24.829Z,88.94
2023-05-10T22:41:01.014Z,89.29
2023-05-10T22:43:37.351Z,89.61
2023-05-10T22:46:12.519Z,89.64
2023-05-10T22:48:46.420Z,89.96
2023-05-10T22:51:20.152Z,89.08
2023-05-10T22:53:55.172Z,89.62
2023-05-10T22:56:36.661Z,89.22
2023-05-10T22:59:10.482Z,88.89
2023-05-10T23:01:45.571Z,89.27
2023-05-10T23:04:17.722Z,89.83
2023-05-10T23:06:51.930Z,90.24
2023-05-10T23:09:27.034Z,90.17
2023-05-10T23:12:04.694Z,90.53
2023-05-10T23:14:42.162Z,90.52
2023-05-10T23:17:14.934Z,90.62
2023-05-10T23:19:47.194Z,90.73
2023-05-10T23:22:20.777Z,90.79
2023-05-10T23:24:53.170Z,90.63
2023-05-10T23:27:42.717Z,91.00
2023-05-10T23:30:23.865Z,91.60
2023-05-10T23:36:15.930Z,92.04
2023-05-10T23:38:53.497Z,92.45
2023-05-10T23:41:29.153Z,92.62
2023-05-10T23:44:10.374Z,93.14
2023-05-10T23:46:45.928Z,93.38
2023-05-10T23:49:31.214Z,93.43
2023-05-10T23:52:03.892Z,94.50
2023-05-10T23:54:39.121Z,94.39
2023-05-10T23:57:11.539Z,94.86
